Duncanville, Texas
Current Conditions -  °F | °C
As of 11:53 PM on Sunday 19 Oct 2014 (Local Time) from KRBD Reporting Station
Clear Clear  
Wind Chill: 61°   Ceiling: Unl
Heat Index: 61°   Visibility: 10mi
Dew Point: 55°   Wind: 5mph
Humidity: 81%   Direction: 130°SE
Pressure: 30.06"   Gusts: NA
Location:  32.65°N, 96.91°W
Report Text: KRBD 200453Z 13004KT 10SM CLR 16/13 A3006 RMK AO2 SLP173 T01610128
Loading
Personal Weather Stations






























Interactive Weather Map New forecast layout! Learn more

10-Day Weather Forecast

Advertisements
Track Severe Weather on mobile